Time;durP1;ratioP1;P1;durP2;ratioP2;P2;SDS_P1;SDS_P2;PMS_P1;PMS_P2;Temp;Humidity;BMP_temperature;BMP_pressure;BME280_temperature;BME280_humidity;BME280_pressure;Samples;Min_cycle;Max_cycle;Signal;HPM_P1;HPM_P2
2021/06/01 00:00:22;;;;;;;;;;;;;;;;;;1483143;40;7118;-66
2021/06/01 00:01:25;;;;;;;;;;;;;;;;;;1482840;40;7108;-63
2021/06/01 00:02:28;;;;;;;;;;;;;;;;;;1482708;40;8024;-65
2021/06/01 00:03:31;;;;;;;;;;;;;;;;;;1482702;40;7027;-62
2021/06/01 00:04:33;;;;;;;;;;;;;;;;;;1482803;40;7012;-64
2021/06/01 00:05:35;;;;;;;;;;;;;;;;;;1483120;40;7125;-66
2021/06/01 00:06:39;;;;;;;;;;;;;;;;;;1482999;40;8853;-64
2021/06/01 00:07:42;;;;;;;;;;;;;;;;;;1483017;40;7007;-62
2021/06/01 00:08:44;;;;;;;;;;;;;;;;;;1478527;40;7051;-65
2021/06/01 00:09:47;;;;;;;;;;;;;;;;;;1478666;40;7039;-63
2021/06/01 00:10:49;;;;;;;;;;;;;;;;;;1478584;40;7008;-64
2021/06/01 00:11:51;;;;;;;;;;;;;;;;;;1478790;40;7023;-64
2021/06/01 00:12:54;;;;;;;;;;;;;;;;;;1478862;40;7012;-64
2021/06/01 00:13:57;;;;;;;;;;;;;;;;;;1478886;40;7003;-62
2021/06/01 00:14:59;;;;;;;;;;;;;;;;;;1478499;40;7042;-62
2021/06/01 00:16:02;;;;;;;;;;;;;;;;;;1479097;40;7035;-65
2021/06/01 00:17:05;;;;;;;;;;;;;;;;;;1478832;40;7024;-65
2021/06/01 00:18:07;;;;;;;;;;;;;;;;;;1479561;40;7469;-64
2021/06/01 00:19:10;;;;;;;;;;;;;;;;;;1480392;40;7016;-64
2021/06/01 00:20:12;;;;;;;;;;;;;;;;;;1478220;40;7935;-65
2021/06/01 00:21:15;;;;;;;;;;;;;;;;;;1478773;40;7043;-62
2021/06/01 00:22:17;;;;;;;;;;;;;;;;;;1482636;40;7902;-64
2021/06/01 00:23:20;;;;;;;;;;;;;;;;;;1479356;40;7011;-68
2021/06/01 00:24:22;;;;;;;;;;;;;;;;;;1481014;40;9166;-65
2021/06/01 00:25:25;;;;;;;;;;;;;;;;;;1482464;40;7012;-64
2021/06/01 00:26:28;;;;;;;;;;;;;;;;;;1482207;40;7047;-62
2021/06/01 00:27:30;;;;;;;;;;;;;;;;;;1482337;40;7007;-67
2021/06/01 00:28:34;;;;;;;;;;;;;;;;;;1482117;40;7833;-65
2021/06/01 00:29:36;;;;;;;;;;;;;;;;;;1481434;40;7608;-61
2021/06/01 00:30:40;;;;;;;;;;;;;;;;;;1485176;40;7108;-62
2021/06/01 00:31:43;;;;;;;;;;;;;;;;;;1481663;40;7007;-65
2021/06/01 00:32:46;;;;;;;;;;;;;;;;;;1478535;40;8002;-64
2021/06/01 00:33:49;;;;;;;;;;;;;;;;;;1478778;40;7035;-64
2021/06/01 00:34:52;;;;;;;;;;;;;;;;;;1478779;40;7024;-61
2021/06/01 00:35:54;;;;;;;;;;;;;;;;;;1481797;40;7031;-65
2021/06/01 00:36:56;;;;;;;;;;;;;;;;;;1478279;40;7007;-65
2021/06/01 00:38:00;;;;;;;;;;;;;;;;;;1478893;40;8255;-64
2021/06/01 00:39:04;;;;;;;;;;;;;;;;;;1478745;40;6999;-63
2021/06/01 00:40:07;;;;;;;;;;;;;;;;;;1479240;40;7016;-67
2021/06/01 00:41:09;;;;;;;;;;;;;;;;;;1478655;40;7003;-65
2021/06/01 00:42:11;;;;;;;;;;;;;;;;;;1478557;40;7035;-62
2021/06/01 00:43:14;;;;;;;;;;;;;;;;;;1478422;40;7039;-66
2021/06/01 00:44:16;;;;;;;;;;;;;;;;;;1478624;40;7032;-63
2021/06/01 00:45:20;;;;;;;;;;;;;;;;;;1478460;40;6999;-62
2021/06/01 00:46:23;;;;;;;;;;;;;;;;;;1478611;40;7016;-64
2021/06/01 00:47:25;;;;;;;;;;;;;;;;;;1478739;40;7935;-66
2021/06/01 00:48:28;;;;;;;;;;;;;;;;;;1478950;40;7043;-65
2021/06/01 00:49:30;;;;;;;;;;;;;;;;;;1479212;40;7932;-62
2021/06/01 00:50:33;;;;;;;;;;;;;;;;;;1480593;40;7058;-65
2021/06/01 00:51:35;;;;;;;;;;;;;;;;;;1482546;40;7925;-64
2021/06/01 00:52:38;;;;;;;;;;;;;;;;;;1482685;40;7043;-63
2021/06/01 00:53:40;;;;;;;;;;;;;;;;;;1479207;40;7003;-63
2021/06/01 00:54:43;;;;;;;;;;;;;;;;;;1479028;40;7031;-64
2021/06/01 00:55:45;;;;;;;;;;;;;;;;;;1478720;40;7039;-63
2021/06/01 00:56:48;;;;;;;;;;;;;;;;;;1479069;40;7059;-65
2021/06/01 00:57:51;;;;;;;;;;;;;;;;;;1478568;40;7035;-63
2021/06/01 00:58:53;;;;;;;;;;;;;;;;;;1478484;40;7947;-64
2021/06/01 00:59:57;;;;;;;;;;;;;;;;;;1478411;40;7856;-64
2021/06/01 01:02:08;;;;;;;;;;;;;;;;;;1479061;40;7886;-62
2021/06/01 01:03:11;;;;;;;;;;;;;;;;;;1478948;40;7918;-63
2021/06/01 01:04:13;;;;;;;;;;;;;;;;;;1478438;40;7911;-64
2021/06/01 01:05:18;;;;;;;;;;;;;;;;;;1478382;40;8901;-64
2021/06/01 01:06:47;;;;;;;;;;;;;;;;;;1478848;40;7027;-63
2021/06/01 01:08:20;;;;;;;;;;;;;;;;;;1483162;40;7891;-65
2021/06/01 01:09:25;;;;;;;;;;;;;;;;;;1482585;40;7944;-65
2021/06/01 01:10:28;;;;;;;;;;;;;;;;;;1482622;40;9707;-63
2021/06/01 01:11:48;;;;;;;;;;;;;;;;;;1482676;40;7194;-65
2021/06/01 01:12:56;;;;;;;;;;;;;;;;;;1482544;40;7000;-63
2021/06/01 01:13:59;;;;;;;;;;;;;;;;;;1482372;40;7011;-62
2021/06/01 01:15:04;;;;;;;;;;;;;;;;;;1482514;40;7043;-65
2021/06/01 01:16:07;;;;;;;;;;;;;;;;;;1482518;40;7108;-60
2021/06/01 01:17:21;;;;;;;;;;;;;;;;;;1482446;40;7934;-63
2021/06/01 01:18:26;;;;;;;;;;;;;;;;;;1479813;40;7040;-64
2021/06/01 01:19:34;;;;;;;;;;;;;;;;;;1480103;40;7116;-66
2021/06/01 01:20:44;;;;;;;;;;;;;;;;;;1478205;40;7004;-66
2021/06/01 01:21:49;;;;;;;;;;;;;;;;;;1478771;40;7962;-64
2021/06/01 01:22:54;;;;;;;;;;;;;;;;;;1478187;40;7039;-63
2021/06/01 01:24:15;;;;;;;;;;;;;;;;;;1481491;40;7153;-64
2021/06/01 01:25:20;;;;;;;;;;;;;;;;;;1480621;40;7007;-63
2021/06/01 01:26:37;;;;;;;;;;;;;;;;;;1480721;40;7110;-64
2021/06/01 01:27:40;;;;;;;;;;;;;;;;;;1482110;40;7916;-64
2021/06/01 01:29:06;;;;;;;;;;;;;;;;;;1482328;40;7149;-64
2021/06/01 01:30:12;;;;;;;;;;;;;;;;;;1482282;40;7923;-65
2021/06/01 01:31:25;;;;;;;;;;;;;;;;;;1482460;40;6999;-63
2021/06/01 01:32:27;;;;;;;;;;;;;;;;;;1482445;40;7035;-61
2021/06/01 01:33:32;;;;;;;;;;;;;;;;;;1481952;40;7052;-64
2021/06/01 01:34:35;;;;;;;;;;;;;;;;;;1478733;40;7035;-63
2021/06/01 01:35:39;;;;;;;;;;;;;;;;;;1478300;40;7931;-63
2021/06/01 01:36:44;;;;;;;;;;;;;;;;;;1481411;40;7281;-64
2021/06/01 01:37:47;;;;;;;;;;;;;;;;;;1481402;40;7124;-64
2021/06/01 01:38:50;;;;;;;;;;;;;;;;;;1478472;40;7017;-62
2021/06/01 01:39:57;;;;;;;;;;;;;;;;;;1479183;40;7395;-63
2021/06/01 01:41:03;;;;;;;;;;;;;;;;;;1479190;40;7112;-65
2021/06/01 01:42:06;;;;;;;;;;;;;;;;;;1478705;40;7308;-63
2021/06/01 01:43:14;;;;;;;;;;;;;;;;;;1479321;40;7012;-64
2021/06/01 01:44:19;;;;;;;;;;;;;;;;;;1479484;40;7259;-64
2021/06/01 01:45:27;;;;;;;;;;;;;;;;;;1479610;40;7035;-64
2021/06/01 01:50:04;;;;;;;;;;;;;;;;;;1478821;40;7321;-62
2021/06/01 01:51:16;;;;;;;;;;;;;;;;;;1478980;40;7035;-63
2021/06/01 01:52:18;;;;;;;;;;;;;;;;;;1479171;40;7203;-64
2021/06/01 01:53:21;;;;;;;;;;;;;;;;;;1479119;40;7134;-66
2021/06/01 01:54:27;;;;;;;;;;;;;;;;;;1479213;40;7031;-65
2021/06/01 01:55:29;;;;;;;;;;;;;;;;;;1479335;40;7883;-63
2021/06/01 01:56:36;;;;;;;;;;;;;;;;;;1479045;40;7110;-63
2021/06/01 01:57:46;;;;;;;;;;;;;;;;;;1479348;40;7056;-63
2021/06/01 01:58:50;;;;;;;;;;;;;;;;;;1479330;40;7016;-63
2021/06/01 01:59:53;;;;;;;;;;;;;;;;;;1479057;40;7165;-63
2021/06/01 02:00:55;;;;;;;;;;;;;;;;;;1478750;40;7199;-65
2021/06/01 02:01:59;;;;;;;;;;;;;;;;;;1479005;40;7261;-65
2021/06/01 02:03:02;;;;;;;;;;;;;;;;;;1478818;40;7016;-62
2021/06/01 02:04:06;;;;;;;;;;;;;;;;;;1478911;40;7168;-65
2021/06/01 02:05:09;;;;;;;;;;;;;;;;;;1478811;40;7083;-65
2021/06/01 02:06:12;;;;;;;;;;;;;;;;;;1479285;40;7007;-63
2021/06/01 02:07:15;;;;;;;;;;;;;;;;;;1478948;40;6999;-62
2021/06/01 02:08:17;;;;;;;;;;;;;;;;;;1478861;40;7067;-64
2021/06/01 02:09:20;;;;;;;;;;;;;;;;;;1478831;40;7039;-62
2021/06/01 02:10:23;;;;;;;;;;;;;;;;;;1479028;40;6999;-65
2021/06/01 02:11:25;;;;;;;;;;;;;;;;;;1479414;40;7105;-63
2021/06/01 02:12:28;;;;;;;;;;;;;;;;;;1478633;40;7918;-63
2021/06/01 02:13:32;;;;;;;;;;;;;;;;;;1478459;40;7278;-64
2021/06/01 02:14:34;;;;;;;;;;;;;;;;;;1483412;40;7007;-63
2021/06/01 02:15:37;;;;;;;;;;;;;;;;;;1483001;40;7007;-63
2021/06/01 02:16:42;;;;;;;;;;;;;;;;;;1483252;40;7035;-65
2021/06/01 02:17:44;;;;;;;;;;;;;;;;;;1481976;40;7125;-64
2021/06/01 02:18:47;;;;;;;;;;;;;;;;;;1482284;40;7012;-63
2021/06/01 02:19:50;;;;;;;;;;;;;;;;;;1478615;40;7107;-66
2021/06/01 02:20:55;;;;;;;;;;;;;;;;;;1478614;40;7091;-63
2021/06/01 02:22:28;;;;;;;;;;;;;;;;;;1481831;40;7607;-61
2021/06/01 02:23:49;;;;;;;;;;;;;;;;;;1478597;40;7007;-67
2021/06/01 02:24:59;;;;;;;;;;;;;;;;;;1478458;40;7004;-67
2021/06/01 02:26:09;;;;;;;;;;;;;;;;;;1480314;40;6999;-60
2021/06/01 02:27:19;;;;;;;;;;;;;;;;;;1482931;40;7012;-62
2021/06/01 02:28:29;;;;;;;;;;;;;;;;;;1482558;40;7003;-64
2021/06/01 02:29:47;;;;;;;;;;;;;;;;;;1483026;40;7859;-62
2021/06/01 02:30:54;;;;;;;;;;;;;;;;;;1482800;40;7047;-65
2021/06/01 02:31:59;;;;;;;;;;;;;;;;;;1482648;40;7143;-64
2021/06/01 02:33:04;;;;;;;;;;;;;;;;;;1483273;40;7043;-62
2021/06/01 02:34:07;;;;;;;;;;;;;;;;;;1478886;40;6995;-63
2021/06/01 02:35:14;;;;;;;;;;;;;;;;;;1479148;40;7116;-62
2021/06/01 02:36:17;;;;;;;;;;;;;;;;;;1478454;40;7031;-64
2021/06/01 02:37:20;;;;;;;;;;;;;;;;;;1478799;40;7009;-64
2021/06/01 02:38:23;;;;;;;;;;;;;;;;;;1478482;40;8034;-64
2021/06/01 02:39:27;;;;;;;;;;;;;;;;;;1479632;40;7938;-64
2021/06/01 02:40:30;;;;;;;;;;;;;;;;;;1483353;40;7170;-61
2021/06/01 02:41:33;;;;;;;;;;;;;;;;;;1483165;40;7039;-63
2021/06/01 02:42:38;;;;;;;;;;;;;;;;;;1482930;40;6999;-61
2021/06/01 02:43:41;;;;;;;;;;;;;;;;;;1478989;40;7056;-65
2021/06/01 02:44:43;;;;;;;;;;;;;;;;;;1478676;40;7216;-64
2021/06/01 02:45:46;;;;;;;;;;;;;;;;;;1478790;40;7008;-62
2021/06/01 02:46:49;;;;;;;;;;;;;;;;;;1479129;40;7031;-65
2021/06/01 02:47:52;;;;;;;;;;;;;;;;;;1479612;40;7012;-63
2021/06/01 02:48:55;;;;;;;;;;;;;;;;;;1479049;40;7109;-64
2021/06/01 02:49:59;;;;;;;;;;;;;;;;;;1479234;40;7865;-64
2021/06/01 02:51:17;;;;;;;;;;;;;;;;;;1478803;40;7947;-64
2021/06/01 02:52:19;;;;;;;;;;;;;;;;;;1479786;40;6999;-63
2021/06/01 02:53:22;;;;;;;;;;;;;;;;;;1479331;40;7035;-63
2021/06/01 02:54:25;;;;;;;;;;;;;;;;;;1481527;40;7934;-63
2021/06/01 02:55:28;;;;;;;;;;;;;;;;;;1483115;40;7031;-65
2021/06/01 02:56:31;;;;;;;;;;;;;;;;;;1483109;40;7418;-65
2021/06/01 02:57:34;;;;;;;;;;;;;;;;;;1483184;40;7066;-62
2021/06/01 02:58:36;;;;;;;;;;;;;;;;;;1480006;40;7971;-63
2021/06/01 02:59:40;;;;;;;;;;;;;;;;;;1479344;40;7191;-63
2021/06/01 03:00:44;;;;;;;;;;;;;;;;;;1478683;40;7215;-62
2021/06/01 03:01:49;;;;;;;;;;;;;;;;;;1479199;40;7250;-63
2021/06/01 03:02:52;;;;;;;;;;;;;;;;;;1482799;40;7007;-62
2021/06/01 03:03:55;;;;;;;;;;;;;;;;;;1482807;40;7003;-63
2021/06/01 03:04:57;;;;;;;;;;;;;;;;;;1482862;40;7027;-64
2021/06/01 03:06:00;;;;;;;;;;;;;;;;;;1482685;40;7920;-61
2021/06/01 03:07:02;;;;;;;;;;;;;;;;;;1482622;40;7867;-63
2021/06/01 03:08:09;;;;;;;;;;;;;;;;;;1482847;40;7047;-65
2021/06/01 03:09:12;;;;;;;;;;;;;;;;;;1478760;40;7105;-63
2021/06/01 03:10:15;;;;;;;;;;;;;;;;;;1479427;40;7035;-65
2021/06/01 03:11:20;;;;;;;;;;;;;;;;;;1479042;40;7191;-63
2021/06/01 03:12:36;;;;;;;;;;;;;;;;;;1478991;40;6999;-63
2021/06/01 03:13:38;;;;;;;;;;;;;;;;;;1478966;40;7043;-63
2021/06/01 03:14:41;;;;;;;;;;;;;;;;;;1479127;40;7016;-63
2021/06/01 03:15:43;;;;;;;;;;;;;;;;;;1478974;40;7063;-62
2021/06/01 03:16:46;;;;;;;;;;;;;;;;;;1479020;40;7031;-64
2021/06/01 03:17:48;;;;;;;;;;;;;;;;;;1479113;40;7004;-63
2021/06/01 03:18:51;;;;;;;;;;;;;;;;;;1478784;40;7013;-63
2021/06/01 03:19:53;;;;;;;;;;;;;;;;;;1481467;40;7028;-63
2021/06/01 03:20:56;;;;;;;;;;;;;;;;;;1482557;40;6999;-63
2021/06/01 03:21:59;;;;;;;;;;;;;;;;;;1478949;40;7047;-66
2021/06/01 03:23:01;;;;;;;;;;;;;;;;;;1478632;40;7183;-63
2021/06/01 03:24:04;;;;;;;;;;;;;;;;;;1478686;40;7011;-65
2021/06/01 03:25:06;;;;;;;;;;;;;;;;;;1478824;40;7043;-68
2021/06/01 03:26:09;;;;;;;;;;;;;;;;;;1478801;40;7003;-63
2021/06/01 03:27:11;;;;;;;;;;;;;;;;;;1482861;40;7047;-62
2021/06/01 03:28:14;;;;;;;;;;;;;;;;;;1482459;40;7027;-66
2021/06/01 03:29:17;;;;;;;;;;;;;;;;;;1482712;40;6999;-64
2021/06/01 03:30:20;;;;;;;;;;;;;;;;;;1481324;40;6999;-63
2021/06/01 03:31:22;;;;;;;;;;;;;;;;;;1480230;40;7016;-63
2021/06/01 03:32:25;;;;;;;;;;;;;;;;;;1478251;40;7043;-65
2021/06/01 03:33:29;;;;;;;;;;;;;;;;;;1478726;40;7109;-68
2021/06/01 03:34:31;;;;;;;;;;;;;;;;;;1479295;40;7027;-62
2021/06/01 03:35:34;;;;;;;;;;;;;;;;;;1478563;40;7020;-65
2021/06/01 03:36:36;;;;;;;;;;;;;;;;;;1477738;40;7062;-63
2021/06/01 03:37:38;;;;;;;;;;;;;;;;;;1478721;40;7122;-62
2021/06/01 03:38:41;;;;;;;;;;;;;;;;;;1478821;40;7007;-63
2021/06/01 03:39:43;;;;;;;;;;;;;;;;;;1478797;40;7039;-63
2021/06/01 03:40:46;;;;;;;;;;;;;;;;;;1479000;40;7927;-66
2021/06/01 03:41:49;;;;;;;;;;;;;;;;;;1478883;40;7928;-63
2021/06/01 03:42:51;;;;;;;;;;;;;;;;;;1478756;40;7052;-63
2021/06/01 03:43:54;;;;;;;;;;;;;;;;;;1479023;40;7008;-65
2021/06/01 03:44:56;;;;;;;;;;;;;;;;;;1478895;40;7039;-64
2021/06/01 03:45:59;;;;;;;;;;;;;;;;;;1479381;40;7003;-61
2021/06/01 03:47:02;;;;;;;;;;;;;;;;;;1479327;40;7063;-62
2021/06/01 03:48:04;;;;;;;;;;;;;;;;;;1478969;40;7020;-63
2021/06/01 03:49:07;;;;;;;;;;;;;;;;;;1478752;40;7004;-66
2021/06/01 03:50:09;;;;;;;;;;;;;;;;;;1479047;40;7961;-63
2021/06/01 03:51:12;;;;;;;;;;;;;;;;;;1478891;40;7031;-65
2021/06/01 03:52:14;;;;;;;;;;;;;;;;;;1479106;40;7916;-63
2021/06/01 03:53:16;;;;;;;;;;;;;;;;;;1479291;40;7874;-65
2021/06/01 03:54:19;;;;;;;;;;;;;;;;;;1478951;40;8375;-64
2021/06/01 03:55:21;;;;;;;;;;;;;;;;;;1478784;40;7063;-67
2021/06/01 03:56:24;;;;;;;;;;;;;;;;;;1478925;40;8790;-63
2021/06/01 03:57:26;;;;;;;;;;;;;;;;;;1478717;40;7000;-62
2021/06/01 03:58:29;;;;;;;;;;;;;;;;;;1479105;40;7052;-64
2021/06/01 03:59:31;;;;;;;;;;;;;;;;;;1479190;40;7145;-65
2021/06/01 04:00:35;;;;;;;;;;;;;;;;;;1478488;40;7028;-62
2021/06/01 04:01:37;;;;;;;;;;;;;;;;;;1479253;40;7118;-64
2021/06/01 04:02:40;;;;;;;;;;;;;;;;;;1479122;40;7048;-65
2021/06/01 04:03:42;;;;;;;;;;;;;;;;;;1478707;40;8017;-64
2021/06/01 04:04:45;;;;;;;;;;;;;;;;;;1478930;40;6999;-64
2021/06/01 04:05:47;;;;;;;;;;;;;;;;;;1479535;39;7106;-64
2021/06/01 04:06:50;;;;;;;;;;;;;;;;;;1479290;40;7047;-65
2021/06/01 04:07:53;;;;;;;;;;;;;;;;;;1479030;40;7142;-64
2021/06/01 04:08:55;;;;;;;;;;;;;;;;;;1478664;40;7012;-63
2021/06/01 04:09:58;;;;;;;;;;;;;;;;;;1478680;40;7224;-64
2021/06/01 04:11:00;;;;;;;;;;;;;;;;;;1478950;40;7113;-64
2021/06/01 04:12:03;;;;;;;;;;;;;;;;;;1478989;40;7883;-64
2021/06/01 04:13:06;;;;;;;;;;;;;;;;;;1479436;40;7480;-64
2021/06/01 04:14:08;;;;;;;;;;;;;;;;;;1482078;40;7936;-65
2021/06/01 04:15:11;;;;;;;;;;;;;;;;;;1482305;40;7899;-66
2021/06/01 04:16:13;;;;;;;;;;;;;;;;;;1478671;40;7007;-64
2021/06/01 04:17:16;;;;;;;;;;;;;;;;;;1479130;40;7016;-61
2021/06/01 04:18:19;;;;;;;;;;;;;;;;;;1478832;40;7026;-65
2021/06/01 04:19:21;;;;;;;;;;;;;;;;;;1480537;40;7927;-66
2021/06/01 04:20:24;;;;;;;;;;;;;;;;;;1478263;40;7113;-63
2021/06/01 04:21:26;;;;;;;;;;;;;;;;;;1480098;40;7935;-63
2021/06/01 04:22:29;;;;;;;;;;;;;;;;;;1479941;40;7954;-65
2021/06/01 04:23:31;;;;;;;;;;;;;;;;;;1478359;40;7873;-63
2021/06/01 04:24:34;;;;;;;;;;;;;;;;;;1480836;40;7054;-62
2021/06/01 04:25:37;;;;;;;;;;;;;;;;;;1482663;40;7202;-62
2021/06/01 04:26:40;;;;;;;;;;;;;;;;;;1482848;40;7063;-64
2021/06/01 04:27:43;;;;;;;;;;;;;;;;;;1481055;40;6999;-65
2021/06/01 04:28:45;;;;;;;;;;;;;;;;;;1482580;40;7067;-65
2021/06/01 04:29:47;;;;;;;;;;;;;;;;;;1482494;40;7096;-64
2021/06/01 04:30:50;;;;;;;;;;;;;;;;;;1481172;40;7003;-65
2021/06/01 04:31:53;;;;;;;;;;;;;;;;;;1482600;40;7040;-66
2021/06/01 04:32:55;;;;;;;;;;;;;;;;;;1482088;40;7144;-64
2021/06/01 04:33:58;;;;;;;;;;;;;;;;;;1478903;40;7039;-65
2021/06/01 04:35:01;;;;;;;;;;;;;;;;;;1479286;40;7135;-64
2021/06/01 04:36:04;;;;;;;;;;;;;;;;;;1478033;40;7107;-64
2021/06/01 04:37:06;;;;;;;;;;;;;;;;;;1478127;40;7529;-64
2021/06/01 04:38:08;;;;;;;;;;;;;;;;;;1478719;40;7115;-64
2021/06/01 04:39:11;;;;;;;;;;;;;;;;;;1478922;40;7902;-65
2021/06/01 04:40:15;;;;;;;;;;;;;;;;;;1479167;40;7190;-63
2021/06/01 04:41:17;;;;;;;;;;;;;;;;;;1478987;40;7008;-62
2021/06/01 04:42:20;;;;;;;;;;;;;;;;;;1478979;40;7007;-62
2021/06/01 04:43:22;;;;;;;;;;;;;;;;;;1478479;40;7895;-63
2021/06/01 04:44:24;;;;;;;;;;;;;;;;;;1482504;40;7119;-65
2021/06/01 04:45:27;;;;;;;;;;;;;;;;;;1482185;40;7847;-64
2021/06/01 04:46:29;;;;;;;;;;;;;;;;;;1478967;40;7892;-64
2021/06/01 04:47:32;;;;;;;;;;;;;;;;;;1478368;40;7035;-64
2021/06/01 04:48:34;;;;;;;;;;;;;;;;;;1483066;40;7114;-66
2021/06/01 04:49:36;;;;;;;;;;;;;;;;;;1483137;40;8194;-65
2021/06/01 04:50:39;;;;;;;;;;;;;;;;;;1482957;40;7140;-63
2021/06/01 04:51:41;;;;;;;;;;;;;;;;;;1482735;40;7031;-62
2021/06/01 04:52:44;;;;;;;;;;;;;;;;;;1483089;40;7007;-64
2021/06/01 04:53:51;;;;;;;;;;;;;;;;;;1483128;40;6999;-64
2021/06/01 04:54:53;;;;;;;;;;;;;;;;;;1482814;40;7007;-63
2021/06/01 04:55:56;;;;;;;;;;;;;;;;;;1482913;40;7118;-63
2021/06/01 04:56:58;;;;;;;;;;;;;;;;;;1483246;40;7929;-62
2021/06/01 04:58:01;;;;;;;;;;;;;;;;;;1483058;40;7011;-65
2021/06/01 04:59:03;;;;;;;;;;;;;;;;;;1482160;40;8407;-66
2021/06/01 05:00:07;;;;;;;;;;;;;;;;;;1478927;40;7010;-64
2021/06/01 05:01:10;;;;;;;;;;;;;;;;;;1478599;40;7035;-64
2021/06/01 05:02:12;;;;;;;;;;;;;;;;;;1478580;40;7007;-62
2021/06/01 05:03:14;;;;;;;;;;;;;;;;;;1478653;40;7027;-61
2021/06/01 05:04:17;;;;;;;;;;;;;;;;;;1478802;40;7000;-63
2021/06/01 05:05:19;;;;;;;;;;;;;;;;;;1479039;40;6999;-64
2021/06/01 05:06:22;;;;;;;;;;;;;;;;;;1478689;40;7169;-66
2021/06/01 05:07:24;;;;;;;;;;;;;;;;;;1479116;40;7003;-63
2021/06/01 05:08:26;;;;;;;;;;;;;;;;;;1478422;40;7003;-63
2021/06/01 05:09:29;;;;;;;;;;;;;;;;;;1478981;40;7043;-64
2021/06/01 05:10:31;;;;;;;;;;;;;;;;;;1478953;40;7012;-64
2021/06/01 05:11:34;;;;;;;;;;;;;;;;;;1479554;39;7106;-62
2021/06/01 05:12:36;;;;;;;;;;;;;;;;;;1478597;40;7027;-64
2021/06/01 05:13:43;;;;;;;;;;;;;;;;;;1479090;40;7008;-63
2021/06/01 05:14:46;;;;;;;;;;;;;;;;;;1479071;40;7027;-63
2021/06/01 05:15:49;;;;;;;;;;;;;;;;;;1479449;40;7012;-64
2021/06/01 05:16:51;;;;;;;;;;;;;;;;;;1479282;40;7000;-63
2021/06/01 05:17:54;;;;;;;;;;;;;;;;;;1479060;40;7142;-66
2021/06/01 05:18:56;;;;;;;;;;;;;;;;;;1479033;40;7044;-64
2021/06/01 05:19:59;;;;;;;;;;;;;;;;;;1483501;40;7016;-65
2021/06/01 05:21:01;;;;;;;;;;;;;;;;;;1478246;40;7027;-61
2021/06/01 05:22:04;;;;;;;;;;;;;;;;;;1480061;40;7007;-65
2021/06/01 05:23:06;;;;;;;;;;;;;;;;;;1479161;40;7007;-67
2021/06/01 05:24:10;;;;;;;;;;;;;;;;;;1479085;40;7062;-63
2021/06/01 05:25:12;;;;;;;;;;;;;;;;;;1482838;40;7071;-64
2021/06/01 05:26:15;;;;;;;;;;;;;;;;;;1479704;40;7035;-64
2021/06/01 05:27:17;;;;;;;;;;;;;;;;;;1479102;40;7923;-65
2021/06/01 05:28:20;;;;;;;;;;;;;;;;;;1478849;40;8040;-63
2021/06/01 05:29:22;;;;;;;;;;;;;;;;;;1479267;40;7007;-63
2021/06/01 05:30:34;;;;;;;;;;;;;;;;;;1478750;40;7186;-63
2021/06/01 05:33:57;;;;;;;;;;;;;;;;;;1479512;40;7031;-63
2021/06/01 05:35:02;;;;;;;;;;;;;;;;;;1479338;40;7908;-65
2021/06/01 05:36:04;;;;;;;;;;;;;;;;;;1479000;40;7960;-66
2021/06/01 05:37:07;;;;;;;;;;;;;;;;;;1478747;40;7705;-66
2021/06/01 05:38:09;;;;;;;;;;;;;;;;;;1479514;40;7003;-66
2021/06/01 05:39:13;;;;;;;;;;;;;;;;;;1479173;40;7039;-64
2021/06/01 05:40:16;;;;;;;;;;;;;;;;;;1479140;40;7920;-68
2021/06/01 05:41:18;;;;;;;;;;;;;;;;;;1479016;40;7115;-63
2021/06/01 05:42:21;;;;;;;;;;;;;;;;;;1479103;40;7879;-63
2021/06/01 05:43:24;;;;;;;;;;;;;;;;;;1479272;40;6999;-65
2021/06/01 05:44:26;;;;;;;;;;;;;;;;;;1479621;40;7035;-62
2021/06/01 05:45:29;;;;;;;;;;;;;;;;;;1479547;40;7040;-62
2021/06/01 05:46:33;;;;;;;;;;;;;;;;;;1479580;40;7004;-65
2021/06/01 05:47:36;;;;;;;;;;;;;;;;;;1479277;40;7071;-62
2021/06/01 05:48:38;;;;;;;;;;;;;;;;;;1479013;40;7039;-63
2021/06/01 05:49:41;;;;;;;;;;;;;;;;;;1479153;40;7007;-62
2021/06/01 05:50:44;;;;;;;;;;;;;;;;;;1479173;40;7024;-65
2021/06/01 05:51:49;;;;;;;;;;;;;;;;;;1478893;40;6999;-64
2021/06/01 05:52:52;;;;;;;;;;;;;;;;;;1479341;40;7110;-64
2021/06/01 05:53:54;;;;;;;;;;;;;;;;;;1479252;40;7851;-63
2021/06/01 05:54:57;;;;;;;;;;;;;;;;;;1479532;40;7008;-66
2021/06/01 05:55:59;;;;;;;;;;;;;;;;;;1479158;40;7558;-63
2021/06/01 05:57:07;;;;;;;;;;;;;;;;;;1479593;40;7131;-65
2021/06/01 05:58:09;;;;;;;;;;;;;;;;;;1479334;40;7003;-66
2021/06/01 05:59:11;;;;;;;;;;;;;;;;;;1479389;40;7027;-62
2021/06/01 06:00:14;;;;;;;;;;;;;;;;;;1479169;40;7195;-63
2021/06/01 06:01:16;;;;;;;;;;;;;;;;;;1479237;40;7003;-63
2021/06/01 06:02:19;;;;;;;;;;;;;;;;;;1479406;40;7035;-65
2021/06/01 06:03:22;;;;;;;;;;;;;;;;;;1479684;40;7938;-63
2021/06/01 06:04:24;;;;;;;;;;;;;;;;;;1479056;40;7067;-63
2021/06/01 06:05:26;;;;;;;;;;;;;;;;;;1479555;40;7023;-64
2021/06/01 06:06:29;;;;;;;;;;;;;;;;;;1479195;40;7034;-64
2021/06/01 06:07:32;;;;;;;;;;;;;;;;;;1479751;39;7177;-65
2021/06/01 06:08:35;;;;;;;;;;;;;;;;;;1478782;40;7007;-63
2021/06/01 06:09:37;;;;;;;;;;;;;;;;;;1478618;40;7039;-62
2021/06/01 06:10:41;;;;;;;;;;;;;;;;;;1478855;40;8369;-66
2021/06/01 06:11:43;;;;;;;;;;;;;;;;;;1479279;40;7882;-65
2021/06/01 06:12:46;;;;;;;;;;;;;;;;;;1478493;40;7112;-64
2021/06/01 06:13:49;;;;;;;;;;;;;;;;;;1478992;40;7052;-63
2021/06/01 06:14:51;;;;;;;;;;;;;;;;;;1478916;40;6999;-64
2021/06/01 06:15:54;;;;;;;;;;;;;;;;;;1476631;40;7227;-65
2021/06/01 06:17:02;;;;;;;;;;;;;;;;;;1477785;40;7913;-65
2021/06/01 06:18:04;;;;;;;;;;;;;;;;;;1479060;40;7003;-62
2021/06/01 06:19:07;;;;;;;;;;;;;;;;;;1479152;40;7211;-64
2021/06/01 06:20:10;;;;;;;;;;;;;;;;;;1478952;40;7003;-64
2021/06/01 06:21:13;;;;;;;;;;;;;;;;;;1479358;40;7104;-66
2021/06/01 06:22:15;;;;;;;;;;;;;;;;;;1479893;40;7013;-64
2021/06/01 06:23:18;;;;;;;;;;;;;;;;;;1478887;40;6999;-63
2021/06/01 06:24:20;;;;;;;;;;;;;;;;;;1479007;40;7124;-66
2021/06/01 06:25:23;;;;;;;;;;;;;;;;;;1478366;40;7007;-65
2021/06/01 06:26:25;;;;;;;;;;;;;;;;;;1479587;40;7893;-63
2021/06/01 06:27:28;;;;;;;;;;;;;;;;;;1477996;40;7143;-63
2021/06/01 06:28:31;;;;;;;;;;;;;;;;;;1478631;40;7079;-64
2021/06/01 06:29:33;;;;;;;;;;;;;;;;;;1478909;40;7007;-67
2021/06/01 06:30:36;;;;;;;;;;;;;;;;;;1480694;40;7027;-67
2021/06/01 06:31:38;;;;;;;;;;;;;;;;;;1478939;40;7008;-65
2021/06/01 06:32:41;;;;;;;;;;;;;;;;;;1478702;40;7203;-63
2021/06/01 06:33:43;;;;;;;;;;;;;;;;;;1478992;40;7003;-63
2021/06/01 06:34:46;;;;;;;;;;;;;;;;;;1479017;40;7003;-64
2021/06/01 06:35:50;;;;;;;;;;;;;;;;;;1478720;40;7012;-65
2021/06/01 06:36:53;;;;;;;;;;;;;;;;;;1478671;40;7075;-62
2021/06/01 06:37:55;;;;;;;;;;;;;;;;;;1479468;40;7008;-64
2021/06/01 06:38:57;;;;;;;;;;;;;;;;;;1479055;40;7039;-62
2021/06/01 06:40:00;;;;;;;;;;;;;;;;;;1478887;40;7009;-63
2021/06/01 06:41:15;;;;;;;;;;;;;;;;;;1478924;40;8025;-65
2021/06/01 06:42:18;;;;;;;;;;;;;;;;;;1479010;40;6999;-63
2021/06/01 06:43:20;;;;;;;;;;;;;;;;;;1479061;40;8010;-63
2021/06/01 06:44:23;;;;;;;;;;;;;;;;;;1478877;40;7079;-63
2021/06/01 06:45:25;;;;;;;;;;;;;;;;;;1482343;40;7035;-64
2021/06/01 06:46:41;;;;;;;;;;;;;;;;;;1478627;40;7048;-63
2021/06/01 06:47:56;;;;;;;;;;;;;;;;;;1479669;40;7027;-63
2021/06/01 06:48:59;;;;;;;;;;;;;;;;;;1479495;40;7112;-63
2021/06/01 06:50:01;;;;;;;;;;;;;;;;;;1479355;40;7019;-65
2021/06/01 06:51:12;;;;;;;;;;;;;;;;;;1478979;40;7933;-62
2021/06/01 06:52:15;;;;;;;;;;;;;;;;;;1478941;40;6999;-63
2021/06/01 06:53:18;;;;;;;;;;;;;;;;;;1483647;40;7023;-64
2021/06/01 06:54:20;;;;;;;;;;;;;;;;;;1478631;40;7112;-65
2021/06/01 06:55:23;;;;;;;;;;;;;;;;;;1479100;40;7975;-64
2021/06/01 06:56:27;;;;;;;;;;;;;;;;;;1478935;40;8996;-66
2021/06/01 06:57:29;;;;;;;;;;;;;;;;;;1478955;40;8444;-68
2021/06/01 06:58:32;;;;;;;;;;;;;;;;;;1478920;40;7071;-67
2021/06/01 06:59:34;;;;;;;;;;;;;;;;;;1478859;40;7115;-64
2021/06/01 07:00:37;;;;;;;;;;;;;;;;;;1479283;40;7039;-65
2021/06/01 07:01:39;;;;;;;;;;;;;;;;;;1479045;40;7043;-66
2021/06/01 07:02:42;;;;;;;;;;;;;;;;;;1478737;40;7055;-66
2021/06/01 07:03:44;;;;;;;;;;;;;;;;;;1478990;40;7035;-64
2021/06/01 07:04:47;;;;;;;;;;;;;;;;;;1479217;40;7058;-63
2021/06/01 07:05:49;;;;;;;;;;;;;;;;;;1479258;40;7008;-65
2021/06/01 07:06:52;;;;;;;;;;;;;;;;;;1478901;40;7016;-63
2021/06/01 07:07:56;;;;;;;;;;;;;;;;;;1478956;40;7925;-64
2021/06/01 07:08:58;;;;;;;;;;;;;;;;;;1479094;40;7031;-66
2021/06/01 07:10:01;;;;;;;;;;;;;;;;;;1479180;40;7191;-62
2021/06/01 07:11:04;;;;;;;;;;;;;;;;;;1478430;40;7024;-64
2021/06/01 07:12:08;;;;;;;;;;;;;;;;;;1479022;40;6999;-63
2021/06/01 07:13:15;;;;;;;;;;;;;;;;;;1478399;40;7017;-65
2021/06/01 07:14:17;;;;;;;;;;;;;;;;;;1479201;40;7008;-64
2021/06/01 07:15:20;;;;;;;;;;;;;;;;;;1479070;40;7203;-63
2021/06/01 07:16:22;;;;;;;;;;;;;;;;;;1478738;40;7124;-65
2021/06/01 07:17:25;;;;;;;;;;;;;;;;;;1479302;40;6999;-65
2021/06/01 07:18:27;;;;;;;;;;;;;;;;;;1478890;40;7039;-65
2021/06/01 07:19:30;;;;;;;;;;;;;;;;;;1480751;40;7861;-65
2021/06/01 07:20:33;;;;;;;;;;;;;;;;;;1483112;40;6999;-66
2021/06/01 07:21:36;;;;;;;;;;;;;;;;;;1482071;40;8835;-65
2021/06/01 07:22:38;;;;;;;;;;;;;;;;;;1482197;40;7000;-66
2021/06/01 07:23:41;;;;;;;;;;;;;;;;;;1479010;40;6999;-66
2021/06/01 07:24:43;;;;;;;;;;;;;;;;;;1478715;40;7008;-64
2021/06/01 07:25:45;;;;;;;;;;;;;;;;;;1478858;40;7004;-66
2021/06/01 07:26:50;;;;;;;;;;;;;;;;;;1478820;40;7008;-66
2021/06/01 07:27:52;;;;;;;;;;;;;;;;;;1478659;40;7007;-64
2021/06/01 07:28:55;;;;;;;;;;;;;;;;;;1478490;40;8695;-64
2021/06/01 07:29:57;;;;;;;;;;;;;;;;;;1478645;40;7039;-66